Time;durP1;ratioP1;P1;durP2;ratioP2;P2;SDS_P1;SDS_P2;PMS_P1;PMS_P2;Temp;Humidity;BMP_temperature;BMP_pressure;BME280_temperature;BME280_humidity;BME280_pressure;Samples;Min_cycle;Max_cycle;Signal;HPM_P1;HPM_P2
2022/01/18 00:00:45;;;;;;;42.17;5.20;;;7.30;99.90;;;;;;4995646;28;20368;-74
2022/01/18 00:03:11;;;;;;;39.10;7.15;;;7.30;99.90;;;;;;4995293;28;20050;-74
2022/01/18 00:05:37;;;;;;;46.22;7.03;;;7.40;99.90;;;;;;4994507;28;20055;-74
2022/01/18 00:08:03;;;;;;;40.58;6.75;;;7.30;99.90;;;;;;4995622;28;20113;-74
2022/01/18 00:10:31;;;;;;;40.53;6.53;;;7.30;99.90;;;;;;4978996;28;20038;-74
2022/01/18 00:23:10;;;;;;;40.50;6.07;;;7.30;99.90;;;;;;4999798;28;20050;-74
2022/01/18 00:25:38;;;;;;;40.95;6.22;;;7.30;99.90;;;;;;4995655;28;20046;-74
2022/01/18 00:28:06;;;;;;;40.80;5.80;;;7.30;99.90;;;;;;5013005;28;20045;-74
2022/01/18 00:33:24;;;;;;;38.60;6.28;;;7.20;99.90;;;;;;4995055;28;20396;-74
2022/01/18 00:35:58;;;;;;;36.03;5.88;;;7.10;99.90;;;;;;4994921;28;20064;-74
2022/01/18 00:38:43;;;;;;;37.70;5.30;;;7.10;99.90;;;;;;4992163;28;20038;-74
2022/01/18 00:41:08;;;;;;;43.70;6.20;;;7.00;99.90;;;;;;4993007;28;20065;-73
2022/01/18 00:43:34;;;;;;;40.83;5.82;;;7.00;99.90;;;;;;4995776;28;20494;-74
2022/01/18 00:45:59;;;;;;;35.33;6.20;;;7.00;99.90;;;;;;4992024;28;20104;-74
2022/01/18 00:48:25;;;;;;;42.80;6.47;;;7.00;99.90;;;;;;4995315;28;20041;-73
2022/01/18 00:50:52;;;;;;;35.35;5.72;;;7.00;99.90;;;;;;4978764;28;20530;-74
2022/01/18 00:53:19;;;;;;;33.00;5.43;;;7.00;99.90;;;;;;5002613;28;20104;-74
2022/01/18 00:55:53;;;;;;;36.05;5.75;;;7.00;99.90;;;;;;4994400;28;20995;-74
2022/01/18 00:58:19;;;;;;;40.05;6.20;;;7.00;99.90;;;;;;5009864;28;20045;-74
2022/01/18 01:00:44;;;;;;;46.20;6.15;;;6.90;99.90;;;;;;5011990;28;20033;-74
2022/01/18 01:03:10;;;;;;;33.75;5.50;;;6.90;99.90;;;;;;4993003;28;20045;-74
2022/01/18 01:05:35;;;;;;;45.05;6.35;;;6.90;99.90;;;;;;4993694;28;20050;-74
2022/01/18 01:08:02;;;;;;;35.97;6.38;;;6.90;99.90;;;;;;4993114;28;20058;-74
2022/01/18 01:10:28;;;;;;;33.92;5.47;;;6.90;99.90;;;;;;4993928;28;20042;-74
2022/01/18 01:12:54;;;;;;;35.42;5.72;;;6.80;99.90;;;;;;5001563;28;20129;-74
2022/01/18 01:15:23;;;;;;;34.13;5.50;;;6.80;99.90;;;;;;4991735;28;20069;-73
2022/01/18 01:18:09;;;;;;;40.88;5.65;;;6.80;99.90;;;;;;4994018;28;20042;-74
2022/01/18 01:34:48;;;;;;;33.88;5.90;;;6.80;99.90;;;;;;4929543;28;20057;-74
2022/01/18 01:43:22;;;;;;;37.15;5.95;;;6.80;99.90;;;;;;4993052;28;20462;-74
2022/01/18 01:45:50;;;;;;;34.90;5.57;;;6.80;99.90;;;;;;4977531;28;20034;-74
2022/01/18 01:48:17;;;;;;;33.25;5.53;;;6.90;99.90;;;;;;4991318;28;20099;-74
2022/01/18 01:50:48;;;;;;;42.85;6.13;;;6.90;99.90;;;;;;4985353;28;20513;-75
2022/01/18 01:53:17;;;;;;;37.65;7.47;;;6.90;99.90;;;;;;4994249;28;20399;-74
2022/01/18 01:55:43;;;;;;;38.55;6.65;;;6.90;99.90;;;;;;4993374;28;20052;-75
2022/01/18 01:58:09;;;;;;;41.58;6.03;;;6.80;99.90;;;;;;4993295;28;20056;-74
2022/01/18 02:00:45;;;;;;;42.53;6.03;;;6.80;99.90;;;;;;4993966;28;20038;-74
2022/01/18 02:03:12;;;;;;;46.38;7.25;;;6.80;99.90;;;;;;4989492;28;20077;-74
2022/01/18 02:05:37;;;;;;;38.78;5.75;;;6.80;99.90;;;;;;4977377;28;20060;-73
2022/01/18 02:08:07;;;;;;;45.78;7.32;;;6.80;99.90;;;;;;4991348;28;20057;-74
2022/01/18 02:10:34;;;;;;;35.45;5.53;;;6.70;99.90;;;;;;4984613;28;20045;-74
2022/01/18 02:12:59;;;;;;;29.25;5.70;;;6.70;99.90;;;;;;4993449;28;20053;-74
2022/01/18 02:15:25;;;;;;;46.05;6.60;;;6.80;99.90;;;;;;5005108;28;20042;-74
2022/01/18 02:23:26;;;;;;;32.65;5.38;;;6.60;99.90;;;;;;4991510;28;20052;-73
2022/01/18 02:25:53;;;;;;;42.55;6.82;;;6.70;99.90;;;;;;4993639;28;20076;-74
2022/01/18 02:28:19;;;;;;;31.38;5.85;;;6.70;99.90;;;;;;4993308;28;20157;-74
2022/01/18 02:30:45;;;;;;;37.33;5.93;;;6.70;99.90;;;;;;4997734;28;20050;-74
2022/01/18 02:33:12;;;;;;;32.00;5.60;;;6.70;99.90;;;;;;4970356;28;20064;-74
2022/01/18 02:35:38;;;;;;;44.10;6.15;;;6.70;99.90;;;;;;4994532;28;20045;-74
2022/01/18 02:38:04;;;;;;;40.28;5.72;;;6.80;99.90;;;;;;4978164;28;20042;-74
2022/01/18 02:40:31;;;;;;;36.60;5.75;;;6.70;99.90;;;;;;4999241;28;20041;-73
2022/01/18 02:43:46;;;;;;;39.63;5.82;;;6.70;99.90;;;;;;4991447;28;20084;-73
2022/01/18 02:45:49;;;;;;;39.22;5.70;;;6.70;99.90;;;;;;4983103;28;20042;-74
2022/01/18 02:48:15;;;;;;;35.20;5.85;;;6.70;99.90;;;;;;4990125;28;20120;-74
2022/01/18 02:50:40;;;;;;;44.00;5.53;;;6.70;99.90;;;;;;4981311;28;20042;-73
2022/01/18 02:53:06;;;;;;;34.22;5.55;;;6.70;99.90;;;;;;5001893;28;20095;-74
2022/01/18 02:55:32;;;;;;;38.28;6.10;;;6.60;99.90;;;;;;4997544;28;20484;-74
2022/01/18 02:58:03;;;;;;;33.78;5.45;;;6.70;99.90;;;;;;4997749;28;20060;-74
2022/01/18 03:00:45;;;;;;;24.25;4.60;;;6.70;99.90;;;;;;5013905;28;20049;-74
2022/01/18 03:03:15;;;;;;;31.03;5.00;;;6.70;99.90;;;;;;4996307;28;20065;-74
2022/01/18 03:05:45;;;;;;;35.83;5.05;;;6.70;99.90;;;;;;4996835;28;20060;-74
2022/01/18 03:08:12;;;;;;;33.85;5.53;;;6.70;99.90;;;;;;4985587;28;20091;-74
2022/01/18 03:10:39;;;;;;;21.98;4.43;;;6.60;99.90;;;;;;4997281;28;20041;-74
2022/01/18 03:13:05;;;;;;;29.75;4.80;;;6.70;99.90;;;;;;4992857;28;20049;-73
2022/01/18 03:15:33;;;;;;;27.23;4.60;;;6.60;99.90;;;;;;5003496;28;20033;-73
2022/01/18 03:18:00;;;;;;;24.90;4.93;;;6.60;99.90;;;;;;4995704;28;20034;-73
2022/01/18 03:20:25;;;;;;;21.83;3.53;;;6.60;99.90;;;;;;4980022;28;20092;-74
2022/01/18 03:22:51;;;;;;;33.60;4.18;;;6.60;99.90;;;;;;4996691;28;20065;-74
2022/01/18 03:28:15;;;;;;;23.50;3.60;;;6.70;99.90;;;;;;4970926;28;20080;-74
2022/01/18 03:30:43;;;;;;;26.05;4.40;;;6.70;99.90;;;;;;4996723;28;20077;-75
2022/01/18 03:33:17;;;;;;;25.00;3.60;;;6.70;99.90;;;;;;4995993;28;20121;-74
2022/01/18 03:35:45;;;;;;;27.48;3.92;;;6.70;99.90;;;;;;5011715;28;20053;-74
2022/01/18 03:38:11;;;;;;;25.02;4.32;;;6.70;99.90;;;;;;4996006;28;20042;-74
2022/01/18 03:40:37;;;;;;;22.15;3.08;;;6.70;99.90;;;;;;4996798;28;20033;-73
2022/01/18 03:43:06;;;;;;;22.42;3.25;;;6.70;99.90;;;;;;4996818;28;20572;-73
2022/01/18 03:45:39;;;;;;;21.23;3.50;;;6.70;99.90;;;;;;4995534;28;20086;-74
2022/01/18 03:48:09;;;;;;;20.10;2.90;;;6.70;99.90;;;;;;4996682;28;20046;-74
2022/01/18 03:50:34;;;;;;;22.55;3.53;;;6.60;99.90;;;;;;4995207;28;20037;-73
2022/01/18 03:53:00;;;;;;;25.05;4.03;;;6.70;99.90;;;;;;5003590;28;20450;-74
2022/01/18 03:55:26;;;;;;;22.33;4.30;;;6.70;99.90;;;;;;5013983;28;20482;-73
2022/01/18 03:57:52;;;;;;;22.05;4.65;;;6.70;99.90;;;;;;5013033;28;20038;-74
2022/01/18 04:00:20;;;;;;;22.60;4.68;;;6.60;99.90;;;;;;4996108;28;20121;-74
2022/01/18 04:02:47;;;;;;;21.30;4.53;;;6.60;99.90;;;;;;4996200;28;20124;-73
2022/01/18 04:05:13;;;;;;;24.30;4.30;;;6.60;99.90;;;;;;4991348;28;20045;-73
2022/01/18 04:07:39;;;;;;;23.73;4.15;;;6.60;99.90;;;;;;4995717;28;20063;-74
2022/01/18 04:10:06;;;;;;;20.98;4.32;;;6.70;99.90;;;;;;4995574;28;20073;-73
2022/01/18 04:12:34;;;;;;;17.42;3.67;;;6.70;99.90;;;;;;4995757;28;20096;-74
2022/01/18 04:15:00;;;;;;;15.85;4.32;;;6.60;99.90;;;;;;5003662;28;20056;-74
2022/01/18 04:28:14;;;;;;;23.48;3.65;;;6.70;99.90;;;;;;4992855;28;20049;-75
2022/01/18 04:30:40;;;;;;;21.30;4.95;;;6.70;99.90;;;;;;4995126;28;20042;-74
2022/01/18 04:33:05;;;;;;;16.02;3.65;;;6.70;99.90;;;;;;4995308;28;20142;-74
2022/01/18 04:35:31;;;;;;;24.70;4.28;;;6.70;99.90;;;;;;4994868;28;20137;-74
2022/01/18 04:37:57;;;;;;;18.10;3.63;;;6.60;99.90;;;;;;4994655;28;20037;-74
2022/01/18 04:40:28;;;;;;;15.27;2.92;;;6.60;99.90;;;;;;4995375;28;20033;-74
2022/01/18 04:50:50;;;;;;;17.08;3.33;;;6.60;99.90;;;;;;4995579;28;20399;-74
2022/01/18 04:53:16;;;;;;;15.18;2.45;;;6.60;99.90;;;;;;4994342;28;20505;-74
2022/01/18 04:55:42;;;;;;;25.55;3.25;;;6.60;99.90;;;;;;4995856;28;20054;-74
2022/01/18 04:58:08;;;;;;;19.17;4.13;;;6.60;99.90;;;;;;4978839;28;20422;-74
2022/01/18 05:00:33;;;;;;;21.55;3.72;;;6.60;99.90;;;;;;4991114;28;20034;-74
2022/01/18 05:02:59;;;;;;;18.27;3.13;;;6.60;99.90;;;;;;4985740;28;20049;-74
2022/01/18 05:05:28;;;;;;;15.50;2.58;;;6.60;99.90;;;;;;4974751;28;20042;-74
2022/01/18 05:07:55;;;;;;;16.67;2.67;;;6.60;99.90;;;;;;4980629;28;20054;-74
2022/01/18 05:10:23;;;;;;;12.07;2.17;;;6.60;99.90;;;;;;4994729;28;20054;-75
2022/01/18 05:12:52;;;;;;;17.05;2.63;;;6.60;99.90;;;;;;5017673;28;20053;-74
2022/01/18 05:23:09;;;;;;;10.57;1.98;;;6.60;99.90;;;;;;4995129;28;20057;-74
2022/01/18 05:25:35;;;;;;;20.98;2.88;;;6.50;99.90;;;;;;4994702;28;20057;-74
2022/01/18 05:28:03;;;;;;;15.15;2.42;;;6.60;99.90;;;;;;5006503;28;20530;-74
2022/01/18 05:30:30;;;;;;;14.38;2.58;;;6.50;99.90;;;;;;4994556;28;20037;-74
2022/01/18 05:32:55;;;;;;;14.45;2.20;;;6.50;99.90;;;;;;4992642;28;20755;-74
2022/01/18 05:35:21;;;;;;;15.70;2.50;;;6.60;99.90;;;;;;4979417;28;20092;-74
2022/01/18 05:37:47;;;;;;;19.13;2.72;;;6.50;99.90;;;;;;4981411;28;20034;-74
2022/01/18 05:40:14;;;;;;;13.68;2.35;;;6.50;99.90;;;;;;4983447;28;20034;-74
2022/01/18 05:42:40;;;;;;;12.00;2.53;;;6.50;99.90;;;;;;5012373;28;20438;-74
2022/01/18 05:45:06;;;;;;;14.43;2.50;;;6.50;99.90;;;;;;4992710;28;20048;-74
2022/01/18 05:47:33;;;;;;;14.88;2.28;;;6.60;99.90;;;;;;4978315;28;20042;-74
2022/01/18 05:49:59;;;;;;;14.93;2.20;;;6.50;99.90;;;;;;4990198;28;20608;-74
2022/01/18 05:52:24;;;;;;;13.27;2.42;;;6.60;99.90;;;;;;4981263;28;20442;-74
2022/01/18 05:54:51;;;;;;;6.82;1.73;;;6.50;99.90;;;;;;4994479;28;20120;-74
2022/01/18 05:57:16;;;;;;;16.10;2.20;;;6.60;99.90;;;;;;4989829;28;20480;-73
2022/01/18 05:59:45;;;;;;;13.73;2.80;;;6.60;99.90;;;;;;4978360;28;20030;-74
2022/01/18 06:02:17;;;;;;;14.23;1.95;;;6.50;99.90;;;;;;4993943;28;20049;-74
2022/01/18 06:07:28;;;;;;;18.60;2.42;;;6.60;99.90;;;;;;4989437;28;20058;-74
2022/01/18 06:09:56;;;;;;;12.32;1.92;;;6.60;99.90;;;;;;4992939;28;20073;-74
2022/01/18 06:12:23;;;;;;;12.07;2.13;;;6.60;99.90;;;;;;4987258;28;20073;-74
2022/01/18 06:14:49;;;;;;;10.00;2.17;;;6.60;99.90;;;;;;5000328;28;20416;-74
2022/01/18 06:17:14;;;;;;;10.27;1.77;;;6.60;99.90;;;;;;5018043;28;20072;-74
2022/01/18 06:19:40;;;;;;;12.23;1.80;;;6.60;99.90;;;;;;4973829;28;20443;-74
2022/01/18 06:22:05;;;;;;;8.52;1.70;;;6.60;99.90;;;;;;4994411;28;20054;-74
2022/01/18 06:24:31;;;;;;;14.05;2.20;;;6.60;99.90;;;;;;4990861;28;20050;-74
2022/01/18 06:26:56;;;;;;;11.90;1.83;;;6.60;99.90;;;;;;4993348;28;20048;-74
2022/01/18 06:29:22;;;;;;;15.27;2.03;;;6.60;99.90;;;;;;4993892;28;20064;-74
2022/01/18 06:31:48;;;;;;;14.30;1.65;;;6.60;99.90;;;;;;4988995;28;20041;-74
2022/01/18 06:34:14;;;;;;;12.05;1.77;;;6.50;99.90;;;;;;4992582;28;20038;-74
2022/01/18 06:36:41;;;;;;;14.90;2.20;;;6.50;99.90;;;;;;5023994;28;20038;-74
2022/01/18 06:39:07;;;;;;;17.70;2.28;;;6.50;99.90;;;;;;4999935;28;20515;-74
2022/01/18 06:41:33;;;;;;;13.13;2.25;;;6.60;99.90;;;;;;4987420;28;20026;-74
2022/01/18 06:43:59;;;;;;;14.38;2.28;;;6.50;99.90;;;;;;4989396;28;20533;-74
2022/01/18 06:46:25;;;;;;;16.17;2.72;;;6.50;99.90;;;;;;4991290;28;20069;-74
2022/01/18 06:48:50;;;;;;;8.38;1.50;;;6.50;99.90;;;;;;4990632;28;20092;-74
2022/01/18 06:51:16;;;;;;;10.48;1.98;;;6.50;99.90;;;;;;4994532;28;20388;-74
2022/01/18 06:53:45;;;;;;;11.25;2.22;;;6.50;99.90;;;;;;4995489;28;20061;-74
2022/01/18 06:56:12;;;;;;;10.90;2.33;;;6.50;99.90;;;;;;4992973;28;20053;-74
2022/01/18 06:58:39;;;;;;;11.02;2.63;;;6.50;99.90;;;;;;4993988;28;20034;-74
2022/01/18 07:01:05;;;;;;;13.55;2.08;;;6.50;99.90;;;;;;4993294;28;20127;-74
2022/01/18 07:03:31;;;;;;;16.48;2.25;;;6.50;99.90;;;;;;4990680;28;20049;-74
2022/01/18 07:05:56;;;;;;;15.90;2.50;;;6.50;99.90;;;;;;4988423;28;20049;-74
2022/01/18 07:08:22;;;;;;;9.23;1.92;;;6.40;99.90;;;;;;4991974;28;20420;-74
2022/01/18 07:10:47;;;;;;;13.00;2.65;;;6.40;99.90;;;;;;5004135;28;20065;-74
2022/01/18 07:13:14;;;;;;;13.50;2.28;;;6.40;99.90;;;;;;5011010;28;20045;-74
2022/01/18 07:15:40;;;;;;;10.80;1.88;;;6.40;99.90;;;;;;4998590;28;20052;-74
2022/01/18 07:18:07;;;;;;;13.93;2.80;;;6.40;99.90;;;;;;4978400;28;20042;-74
2022/01/18 07:20:32;;;;;;;9.70;1.65;;;6.40;99.90;;;;;;4992280;28;20057;-74
2022/01/18 07:22:58;;;;;;;8.43;1.70;;;6.40;99.90;;;;;;4985877;28;20046;-74
2022/01/18 07:25:25;;;;;;;13.50;2.35;;;6.40;99.90;;;;;;5003430;28;20096;-74
2022/01/18 07:27:51;;;;;;;17.55;2.92;;;6.40;99.90;;;;;;4965295;28;20125;-74
2022/01/18 07:30:17;;;;;;;14.27;2.53;;;6.40;99.90;;;;;;4980474;28;20440;-74
2022/01/18 07:32:43;;;;;;;11.75;2.30;;;6.40;99.90;;;;;;4979298;28;20494;-74
2022/01/18 07:35:11;;;;;;;19.02;3.03;;;6.40;99.90;;;;;;4983996;28;20700;-74
2022/01/18 07:37:37;;;;;;;15.05;2.08;;;6.40;99.90;;;;;;4988759;28;20431;-74
2022/01/18 07:40:05;;;;;;;12.98;2.30;;;6.40;99.90;;;;;;5009277;28;20136;-74
2022/01/18 07:42:31;;;;;;;20.35;3.35;;;6.40;99.90;;;;;;4978606;28;20056;-74
2022/01/18 07:44:57;;;;;;;14.68;2.97;;;6.40;99.90;;;;;;4987737;28;20042;-75
2022/01/18 07:47:22;;;;;;;15.77;2.47;;;6.40;99.90;;;;;;4981614;28;20056;-75
2022/01/18 07:49:48;;;;;;;9.77;2.28;;;6.40;99.90;;;;;;4962090;28;20117;-74
2022/01/18 07:52:15;;;;;;;10.60;2.38;;;6.40;99.90;;;;;;4986388;28;20092;-74
2022/01/18 07:54:41;;;;;;;13.20;2.58;;;6.40;99.90;;;;;;4983172;28;20125;-74
2022/01/18 07:57:06;;;;;;;14.85;3.08;;;6.40;99.90;;;;;;4992273;28;20124;-74
2022/01/18 07:59:32;;;;;;;12.93;3.53;;;6.40;99.90;;;;;;4970225;28;20116;-75
2022/01/18 08:01:57;;;;;;;18.25;4.00;;;6.50;99.90;;;;;;5001642;28;20100;-74
2022/01/18 08:04:23;;;;;;;14.40;2.60;;;6.40;99.90;;;;;;4986986;28;20100;-74
2022/01/18 08:06:49;;;;;;;13.13;3.58;;;6.50;99.90;;;;;;4986678;28;20101;-74
2022/01/18 08:09:18;;;;;;;16.45;2.80;;;6.50;99.90;;;;;;4984234;28;20471;-74
2022/01/18 08:11:44;;;;;;;13.02;3.10;;;6.50;99.90;;;;;;4991382;28;20045;-74
2022/01/18 08:14:13;;;;;;;13.00;3.15;;;6.50;99.90;;;;;;4991975;28;20050;-73
2022/01/18 08:17:00;;;;;;;18.48;4.22;;;6.50;99.90;;;;;;5021955;28;20037;-74
2022/01/18 08:19:26;;;;;;;16.80;3.75;;;6.50;99.90;;;;;;4994682;28;20080;-75
2022/01/18 08:21:52;;;;;;;14.20;3.40;;;6.50;99.90;;;;;;4995792;28;20053;-75
2022/01/18 08:24:17;;;;;;;14.07;2.95;;;6.60;99.90;;;;;;4993977;28;20030;-75
2022/01/18 08:26:43;;;;;;;15.65;3.25;;;6.60;99.90;;;;;;4978530;28;20061;-75
2022/01/18 08:29:11;;;;;;;12.07;4.95;;;6.60;99.90;;;;;;4994222;28;20112;-75
2022/01/18 08:31:37;;;;;;;11.25;3.95;;;6.60;99.90;;;;;;4976271;28;20035;-75
2022/01/18 08:34:03;;;;;;;15.35;5.10;;;6.70;99.90;;;;;;4988385;28;20388;-74
2022/01/18 08:36:28;;;;;;;14.88;4.47;;;6.70;99.90;;;;;;4991323;28;20042;-75
2022/01/18 08:38:54;;;;;;;12.40;3.63;;;6.70;99.90;;;;;;4993211;28;20049;-75
2022/01/18 08:41:20;;;;;;;13.13;3.70;;;6.70;99.90;;;;;;4984244;28;20065;-74
2022/01/18 08:43:45;;;;;;;15.05;4.13;;;6.70;99.90;;;;;;4976478;28;20105;-74
2022/01/18 08:46:11;;;;;;;10.32;3.17;;;6.80;99.90;;;;;;4995256;28;20046;-75
2022/01/18 08:48:37;;;;;;;14.13;4.50;;;6.80;99.90;;;;;;4978199;28;20077;-75
2022/01/18 08:51:04;;;;;;;17.58;4.35;;;6.80;99.90;;;;;;4994140;28;20115;-75
2022/01/18 08:53:29;;;;;;;9.48;3.50;;;6.90;99.90;;;;;;4995892;28;20033;-76
2022/01/18 08:55:55;;;;;;;15.85;4.65;;;6.80;99.90;;;;;;4993205;28;20068;-75
2022/01/18 08:58:21;;;;;;;12.23;3.40;;;6.90;99.90;;;;;;4994133;28;20041;-75
2022/01/18 09:00:47;;;;;;;18.45;5.30;;;6.90;99.90;;;;;;4993766;28;20057;-75
2022/01/18 09:03:13;;;;;;;14.65;3.92;;;7.00;99.90;;;;;;5014127;28;20056;-74
2022/01/18 09:05:39;;;;;;;14.43;6.15;;;7.00;99.90;;;;;;4986788;28;20496;-74
2022/01/18 09:08:07;;;;;;;12.82;6.40;;;7.00;99.90;;;;;;5000920;28;20050;-74
2022/01/18 09:10:34;;;;;;;10.95;3.70;;;7.10;99.90;;;;;;4975232;28;20049;-75
2022/01/18 09:12:59;;;;;;;14.65;4.53;;;7.10;99.90;;;;;;4988891;28;20038;-75
2022/01/18 09:15:26;;;;;;;13.50;5.43;;;7.10;99.90;;;;;;4983433;28;20041;-74
2022/01/18 09:17:52;;;;;;;8.48;3.75;;;7.10;99.90;;;;;;4981373;28;20050;-74
2022/01/18 09:20:18;;;;;;;15.50;3.70;;;7.20;99.90;;;;;;5007521;28;20038;-74
2022/01/18 09:22:46;;;;;;;11.00;3.45;;;7.20;99.90;;;;;;5004943;28;20160;-74
2022/01/18 09:25:16;;;;;;;15.90;3.15;;;7.30;99.90;;;;;;4985651;28;20129;-74
2022/01/18 09:27:42;;;;;;;10.02;3.75;;;7.30;99.90;;;;;;4986517;28;20463;-74
2022/01/18 09:30:08;;;;;;;9.70;3.20;;;7.30;99.90;;;;;;4990523;28;20125;-74
2022/01/18 09:32:34;;;;;;;12.27;3.38;;;7.40;99.90;;;;;;4994761;28;20036;-74
2022/01/18 09:35:00;;;;;;;12.52;3.38;;;7.50;99.90;;;;;;5012093;28;20049;-74
2022/01/18 09:37:25;;;;;;;8.55;3.30;;;7.50;99.90;;;;;;4991529;28;20487;-74
2022/01/18 09:39:53;;;;;;;10.50;4.03;;;7.50;99.90;;;;;;4991941;28;20034;-74
2022/01/18 09:42:20;;;;;;;8.70;2.25;;;7.50;99.90;;;;;;4990296;28;20124;-74
2022/01/18 09:44:48;;;;;;;11.50;4.43;;;7.50;99.90;;;;;;4988464;28;20042;-74
2022/01/18 09:47:14;;;;;;;7.72;2.25;;;7.50;99.90;;;;;;4992605;28;20424;-74
2022/01/18 09:49:39;;;;;;;9.98;3.45;;;7.60;99.90;;;;;;4976364;28;20041;-73
2022/01/18 09:52:05;;;;;;;10.00;2.33;;;7.70;99.90;;;;;;4992880;28;20038;-74
2022/01/18 09:54:32;;;;;;;10.82;2.65;;;7.70;99.90;;;;;;5009644;28;20067;-73
2022/01/18 09:56:57;;;;;;;12.43;2.92;;;7.70;99.90;;;;;;4992198;28;20469;-74
2022/01/18 09:59:23;;;;;;;12.45;3.10;;;7.80;99.90;;;;;;5009367;28;20077;-74
2022/01/18 10:01:48;;;;;;;9.32;3.17;;;7.80;99.90;;;;;;4993135;28;20511;-74
2022/01/18 10:04:20;;;;;;;10.23;2.95;;;7.80;99.90;;;;;;4992679;28;20069;-74
2022/01/18 10:06:52;;;;;;;14.20;3.42;;;7.90;99.90;;;;;;4984433;28;20046;-74
2022/01/18 10:09:19;;;;;;;10.68;3.58;;;7.90;99.90;;;;;;4992552;28;20037;-74
2022/01/18 10:12:03;;;;;;;11.27;3.10;;;7.90;99.90;;;;;;4987773;28;20497;-74
2022/01/18 10:14:30;;;;;;;10.57;3.38;;;7.90;99.90;;;;;;4988747;28;20549;-74
2022/01/18 10:16:55;;;;;;;9.23;2.97;;;7.90;99.90;;;;;;4982616;28;20042;-74
2022/01/18 10:22:09;;;;;;;14.55;4.65;;;8.00;99.90;;;;;;5006008;28;20042;-74
2022/01/18 10:24:35;;;;;;;14.75;3.67;;;8.00;99.90;;;;;;4988686;28;20423;-74
2022/01/18 10:27:01;;;;;;;11.18;3.47;;;8.00;99.90;;;;;;5008668;28;20042;-74
2022/01/18 10:29:29;;;;;;;12.55;3.95;;;8.00;99.90;;;;;;4993512;28;20041;-74
2022/01/18 10:32:01;;;;;;;12.35;3.30;;;8.10;99.90;;;;;;4992917;28;20042;-74
2022/01/18 10:37:04;;;;;;;10.02;4.28;;;8.10;99.90;;;;;;4991854;28;20045;-74
2022/01/18 10:39:47;;;;;;;14.15;4.32;;;8.20;99.90;;;;;;4976499;28;20085;-74
2022/01/18 10:42:29;;;;;;;10.10;2.80;;;8.20;99.90;;;;;;4990755;28;20447;-75
2022/01/18 10:45:03;;;;;;;14.50;3.13;;;8.20;99.90;;;;;;4995226;28;20054;-74
2022/01/18 10:47:30;;;;;;;10.35;3.63;;;8.20;99.90;;;;;;4990223;28;20041;-74
2022/01/18 10:49:57;;;;;;;12.35;2.65;;;8.20;99.90;;;;;;4989322;28;20046;-74
2022/01/18 10:52:26;;;;;;;13.15;2.85;;;8.30;99.90;;;;;;4987112;28;20160;-75
2022/01/18 10:54:57;;;;;;;15.57;3.15;;;8.30;99.90;;;;;;4976338;28;20487;-75
2022/01/18 10:57:30;;;;;;;8.48;2.53;;;8.40;99.90;;;;;;5005641;28;20034;-75
2022/01/18 11:00:03;;;;;;;12.20;4.22;;;8.40;99.90;;;;;;5004242;28;20376;-74
2022/01/18 11:02:33;;;;;;;12.50;3.75;;;8.40;99.90;;;;;;5006006;28;20045;-74
2022/01/18 11:04:59;;;;;;;11.70;4.13;;;8.40;99.90;;;;;;4994685;28;20498;-74
2022/01/18 11:07:27;;;;;;;11.75;3.75;;;8.40;99.90;;;;;;4992029;28;20112;-74
2022/01/18 11:09:53;;;;;;;11.70;4.53;;;8.40;99.90;;;;;;4977213;28;20042;-75
2022/01/18 11:12:23;;;;;;;11.80;3.92;;;8.40;99.90;;;;;;4996990;28;20509;-74
2022/01/18 11:15:00;;;;;;;11.70;3.63;;;8.30;99.90;;;;;;4972363;28;20436;-75
2022/01/18 11:17:27;;;;;;;11.23;3.92;;;8.30;99.90;;;;;;4985279;28;20097;-74
2022/01/18 11:19:55;;;;;;;9.50;3.53;;;8.30;99.90;;;;;;4997054;28;20426;-74
2022/01/18 11:22:24;;;;;;;16.02;4.13;;;8.30;99.90;;;;;;4960874;28;20085;-74
2022/01/18 11:24:50;;;;;;;10.80;3.55;;;8.20;99.90;;;;;;4991102;28;20488;-74
2022/01/18 11:27:18;;;;;;;11.90;3.47;;;8.20;99.90;;;;;;4978870;28;20050;-74
2022/01/18 11:29:47;;;;;;;15.77;3.85;;;8.20;99.90;;;;;;4977167;28;20046;-74
2022/01/18 11:32:15;;;;;;;11.18;3.17;;;8.30;99.90;;;;;;4976908;28;20037;-74
2022/01/18 11:35:06;;;;;;;10.80;3.17;;;8.40;99.90;;;;;;4976453;28;20404;-74
2022/01/18 11:38:02;;;;;;;10.63;3.15;;;8.40;99.90;;;;;;4975790;28;20100;-74
2022/01/18 11:40:45;;;;;;;11.07;3.60;;;8.30;99.90;;;;;;4976400;28;20038;-74
2022/01/18 11:43:11;;;;;;;12.07;2.85;;;8.40;99.90;;;;;;4976055;28;20053;-74
2022/01/18 11:45:40;;;;;;;11.27;2.80;;;8.30;99.90;;;;;;4974123;28;20058;-74
2022/01/18 11:48:15;;;;;;;10.18;2.55;;;8.40;99.90;;;;;;4972079;28;20038;-74
2022/01/18 11:50:50;;;;;;;9.20;3.30;;;8.40;99.90;;;;;;4960277;28;20044;-74
2022/01/18 11:53:41;;;;;;;11.75;3.80;;;8.40;99.90;;;;;;4976052;28;20125;-74
2022/01/18 11:56:13;;;;;;;11.85;4.18;;;8.40;99.90;;;;;;4952023;28;20479;-74
2022/01/18 11:58:39;;;;;;;15.20;4.05;;;8.40;99.90;;;;;;4991279;28;20054;-74
2022/01/18 12:01:04;;;;;;;12.63;3.72;;;8.40;99.90;;;;;;4967168;28;20038;-74
2022/01/18 12:03:32;;;;;;;10.15;3.33;;;8.40;99.90;;;;;;4976968;28;20050;-75
2022/01/18 12:06:03;;;;;;;13.02;3.58;;;8.50;99.90;;;;;;4958148;28;20053;-74
2022/01/18 12:08:34;;;;;;;10.88;3.60;;;8.40;99.90;;;;;;4969192;28;20042;-74
2022/01/18 12:11:05;;;;;;;12.80;3.95;;;8.40;99.90;;;;;;4976058;28;20133;-74
2022/01/18 12:13:34;;;;;;;20.27;3.88;;;8.40;99.90;;;;;;4961521;28;20647;-74
2022/01/18 12:16:04;;;;;;;11.60;3.67;;;8.40;99.90;;;;;;4980455;28;20052;-74
2022/01/18 12:18:31;;;;;;;16.48;3.45;;;8.40;99.90;;;;;;4977087;28;20496;-74
2022/01/18 12:21:03;;;;;;;12.48;3.33;;;8.40;99.90;;;;;;4977461;28;20046;-74
2022/01/18 12:23:40;;;;;;;;;;;8.40;99.90;;;;;;4956281;28;20066;-74
2022/01/18 12:28:49;;;;;;;8.57;2.35;;;8.40;99.90;;;;;;4972962;28;20042;-73
2022/01/18 12:34:35;;;;;;;9.13;2.85;;;8.40;99.90;;;;;;4979222;28;20452;-73
2022/01/18 12:37:07;;;;;;;8.82;2.65;;;8.40;99.90;;;;;;4970483;28;20132;-74
2022/01/18 12:40:05;;;;;;;9.27;2.53;;;8.40;99.90;;;;;;4969950;28;20041;-74
2022/01/18 12:45:12;;;;;;;7.97;2.50;;;8.30;99.90;;;;;;4982729;28;20050;-74
2022/01/18 12:47:48;;;;;;;13.50;2.40;;;8.30;99.90;;;;;;4977534;28;20050;-74
2022/01/18 12:50:16;;;;;;;8.57;2.50;;;8.40;99.90;;;;;;4984611;28;20053;-74
2022/01/18 12:52:48;;;;;;;9.75;3.28;;;8.30;99.90;;;;;;4982203;28;20034;-74
2022/01/18 12:55:31;;;;;;;12.60;3.05;;;8.30;99.90;;;;;;4982697;28;20153;-73
2022/01/18 12:58:20;;;;;;;8.40;2.42;;;8.30;99.90;;;;;;4969964;28;20035;-74
2022/01/18 13:00:50;;;;;;;12.13;2.40;;;8.30;99.90;;;;;;4972818;28;20042;-74
2022/01/18 13:03:29;;;;;;;10.07;2.70;;;8.20;99.90;;;;;;4977890;28;20042;-74
2022/01/18 13:05:57;;;;;;;9.80;2.63;;;8.30;99.90;;;;;;4962794;28;20158;-74
2022/01/18 13:08:29;;;;;;;9.57;3.08;;;8.20;99.90;;;;;;4983070;28;20052;-74
2022/01/18 13:10:55;;;;;;;8.85;3.10;;;8.20;99.90;;;;;;4992342;28;20078;-74
2022/01/18 13:13:28;;;;;;;11.82;4.28;;;8.10;99.90;;;;;;4965805;28;20121;-74
2022/01/18 13:26:37;;;;;;;12.45;4.28;;;8.20;99.90;;;;;;4992969;28;20416;-73
2022/01/18 13:29:15;;;;;;;9.55;3.90;;;8.20;99.90;;;;;;4993294;28;20034;-74
2022/01/18 13:31:45;;;;;;;16.02;4.97;;;8.20;99.90;;;;;;4993665;28;20145;-74
2022/01/18 13:34:13;;;;;;;10.65;4.13;;;8.10;99.90;;;;;;4977540;28;20049;-73
2022/01/18 13:36:55;;;;;;;11.65;4.22;;;8.10;99.90;;;;;;4978444;28;20053;-73
2022/01/18 13:39:51;;;;;;;10.20;4.00;;;8.00;99.90;;;;;;4993744;28;20103;-74
2022/01/18 13:42:19;;;;;;;13.30;4.15;;;8.10;99.90;;;;;;4991595;28;20121;-73
2022/01/18 13:45:12;;;;;;;11.23;4.55;;;8.00;99.90;;;;;;4994274;28;20042;-74
2022/01/18 13:47:46;;;;;;;15.35;3.97;;;8.00;99.90;;;;;;4992211;28;20052;-74
2022/01/18 13:50:42;;;;;;;14.30;4.60;;;7.90;99.90;;;;;;4993077;28;20415;-73
2022/01/18 13:53:16;;;;;;;11.50;4.40;;;7.90;99.90;;;;;;4992065;28;20411;-74
2022/01/18 13:55:48;;;;;;;12.68;4.35;;;7.90;99.90;;;;;;4994001;28;20057;-73
2022/01/18 13:58:24;;;;;;;11.47;5.23;;;7.90;99.90;;;;;;4994157;28;20038;-73
2022/01/18 14:00:50;;;;;;;12.60;5.47;;;7.80;99.90;;;;;;4977852;28;20144;-73
2022/01/18 14:03:35;;;;;;;11.27;4.55;;;7.70;99.90;;;;;;4993347;28;20476;-73
2022/01/18 14:06:01;;;;;;;15.02;5.10;;;7.70;99.90;;;;;;4982664;28;20037;-73
2022/01/18 14:08:32;;;;;;;15.63;4.80;;;7.70;99.90;;;;;;4975528;28;20053;-73
2022/01/18 14:11:06;;;;;;;10.73;4.85;;;7.70;99.90;;;;;;4991371;28;20042;-73
2022/01/18 14:13:35;;;;;;;9.65;4.15;;;7.60;99.90;;;;;;4992997;28;20460;-73
2022/01/18 14:16:20;;;;;;;16.25;5.38;;;7.60;99.90;;;;;;4985526;28;20056;-73
2022/01/18 14:18:54;;;;;;;14.40;4.75;;;7.60;99.90;;;;;;4993570;28;20065;-73
2022/01/18 14:21:24;;;;;;;16.08;5.35;;;7.60;99.90;;;;;;4969372;28;21187;-73
2022/01/18 14:24:05;;;;;;;20.02;5.47;;;7.50;99.90;;;;;;4978364;28;20136;-73
2022/01/18 14:26:31;;;;;;;13.07;5.20;;;7.50;99.90;;;;;;4989532;28;20088;-73
2022/01/18 14:29:00;;;;;;;18.35;6.28;;;7.50;99.90;;;;;;4971650;28;20441;-73
2022/01/18 14:31:26;;;;;;;15.10;5.60;;;7.40;99.90;;;;;;5009171;28;20042;-73